Time;durP1;ratioP1;P1;durP2;ratioP2;P2;SDS_P1;SDS_P2;PMS_P1;PMS_P2;Temp;Humidity;BMP_temperature;BMP_pressure;BME280_temperature;BME280_humidity;BME280_pressure;Samples;Min_cycle;Max_cycle;Signal;HPM_P1;HPM_P2
2021/06/13 00:01:19;;;;;;;118.53;47.65;;;;;;;;;;5042358;28;20090;-70
2021/06/13 00:03:46;;;;;;;117.07;48.30;;;;;;;;;;5034700;28;20079;-68
2021/06/13 00:06:11;;;;;;;119.32;48.92;;;;;;;;;;5038207;28;20253;-71
2021/06/13 00:08:37;;;;;;;109.55;47.83;;;;;;;;;;5033547;28;20033;-71
2021/06/13 00:11:02;;;;;;;134.75;50.83;;;;;;;;;;5045997;28;20037;-71
2021/06/13 00:13:28;;;;;;;119.35;47.00;;;;;;;;;;5020111;28;20049;-74
2021/06/13 00:15:54;;;;;;;133.77;51.45;;;;;;;;;;5046517;28;20071;-71
2021/06/13 00:18:20;;;;;;;132.32;49.22;;;;;;;;;;5026566;28;20394;-70
2021/06/13 00:20:46;;;;;;;122.85;51.03;;;;;;;;;;5045332;28;20115;-70
2021/06/13 00:23:12;;;;;;;131.05;50.10;;;;;;;;;;5045262;28;20288;-70
2021/06/13 00:25:37;;;;;;;102.28;43.10;;;;;;;;;;5047181;28;20044;-71
2021/06/13 00:28:03;;;;;;;116.35;47.47;;;;;;;;;;5040276;28;20029;-70
2021/06/13 00:30:32;;;;;;;136.15;48.50;;;;;;;;;;5032543;28;20086;-69
2021/06/13 00:32:58;;;;;;;110.88;44.92;;;;;;;;;;5026466;28;20493;-71
2021/06/13 00:35:23;;;;;;;111.82;42.55;;;;;;;;;;5031053;28;20098;-70
2021/06/13 00:37:50;;;;;;;109.57;43.78;;;;;;;;;;5035822;28;20036;-70
2021/06/13 00:40:17;;;;;;;121.38;46.95;;;;;;;;;;5038946;28;20036;-70
2021/06/13 00:42:44;;;;;;;105.00;43.20;;;;;;;;;;5026190;28;20048;-70
2021/06/13 00:45:10;;;;;;;105.10;42.03;;;;;;;;;;5041172;28;20037;-71
2021/06/13 00:47:37;;;;;;;95.95;41.92;;;;;;;;;;5028113;28;20036;-68
2021/06/13 00:50:04;;;;;;;100.05;43.42;;;;;;;;;;5026307;28;20053;-68
2021/06/13 00:52:31;;;;;;;113.75;45.55;;;;;;;;;;5040354;28;20139;-66
2021/06/13 00:55:00;;;;;;;96.75;40.92;;;;;;;;;;5026522;28;20519;-68
2021/06/13 00:57:27;;;;;;;90.47;40.90;;;;;;;;;;4986380;28;20513;-71
2021/06/13 00:59:52;;;;;;;111.82;42.97;;;;;;;;;;5007377;28;20091;-71
2021/06/13 01:02:18;;;;;;;105.15;43.47;;;;;;;;;;5034873;28;20180;-71
2021/06/13 01:04:44;;;;;;;116.43;47.42;;;;;;;;;;5027107;28;20029;-71
2021/06/13 01:07:30;;;;;;;106.00;44.65;;;;;;;;;;5037967;28;20037;-71
2021/06/13 01:10:03;;;;;;;98.72;41.28;;;;;;;;;;5007142;28;20093;-70
2021/06/13 01:12:44;;;;;;;100.05;41.92;;;;;;;;;;5022623;28;20047;-70
2021/06/13 01:15:11;;;;;;;111.28;43.30;;;;;;;;;;5012002;28;20048;-70
2021/06/13 01:17:59;;;;;;;109.07;43.00;;;;;;;;;;5002145;28;20029;-72
2021/06/13 01:20:40;;;;;;;99.10;44.13;;;;;;;;;;5008542;28;20194;-71
2021/06/13 01:23:32;;;;;;;106.28;45.03;;;;;;;;;;5019983;28;20028;-71
2021/06/13 01:26:04;;;;;;;102.00;45.75;;;;;;;;;;4983133;28;20057;-69
2021/06/13 01:28:42;;;;;;;110.40;45.42;;;;;;;;;;4967968;28;20042;-71
2021/06/13 01:31:08;;;;;;;118.10;44.95;;;;;;;;;;4939201;28;20617;-70
2021/06/13 01:33:36;;;;;;;102.50;43.42;;;;;;;;;;4928630;28;20436;-67
2021/06/13 01:36:07;;;;;;;111.90;46.20;;;;;;;;;;4961533;28;20046;-69
2021/06/13 01:38:33;;;;;;;111.03;47.97;;;;;;;;;;4958568;28;20070;-66
2021/06/13 01:41:01;;;;;;;104.22;46.20;;;;;;;;;;4956077;28;20035;-65
2021/06/13 01:43:28;;;;;;;112.57;45.95;;;;;;;;;;4983453;28;20042;-68
2021/06/13 01:45:55;;;;;;;116.28;45.60;;;;;;;;;;4966960;28;20070;-67
2021/06/13 01:48:22;;;;;;;111.25;45.72;;;;;;;;;;4983661;28;20038;-68
2021/06/13 01:50:48;;;;;;;110.22;45.35;;;;;;;;;;4955895;28;20106;-67
2021/06/13 01:53:15;;;;;;;107.93;45.25;;;;;;;;;;4970858;28;20034;-68
2021/06/13 01:55:44;;;;;;;121.72;46.15;;;;;;;;;;4983009;28;20058;-66
2021/06/13 01:58:17;;;;;;;117.60;46.63;;;;;;;;;;4896859;29;20035;-67
2021/06/13 02:01:06;;;;;;;113.20;46.55;;;;;;;;;;4948277;28;20081;-68
2021/06/13 02:03:35;;;;;;;112.53;47.67;;;;;;;;;;5024022;28;20132;-67
2021/06/13 02:06:35;;;;;;;112.15;49.28;;;;;;;;;;4987260;28;20054;-67
2021/06/13 02:09:03;;;;;;;110.15;47.35;;;;;;;;;;4981635;28;20066;-68
2021/06/13 02:11:30;;;;;;;112.97;46.95;;;;;;;;;;4967766;28;20052;-67
2021/06/13 02:13:57;;;;;;;104.18;46.20;;;;;;;;;;4966421;28;20046;-71
2021/06/13 02:16:29;;;;;;;109.15;47.53;;;;;;;;;;4964345;28;20480;-71
2021/06/13 02:18:57;;;;;;;122.30;47.47;;;;;;;;;;4948350;28;20085;-65
2021/06/13 02:21:26;;;;;;;117.18;46.67;;;;;;;;;;4960367;28;20364;-65
2021/06/13 02:23:53;;;;;;;112.10;46.55;;;;;;;;;;4982272;28;20440;-65
2021/06/13 02:26:19;;;;;;;96.82;45.80;;;;;;;;;;4982550;28;20074;-65
2021/06/13 02:28:48;;;;;;;111.13;48.53;;;;;;;;;;4983770;28;20132;-66
2021/06/13 02:31:14;;;;;;;107.95;45.28;;;;;;;;;;4981687;28;20074;-65
2021/06/13 02:33:42;;;;;;;106.00;46.63;;;;;;;;;;4966316;28;20121;-66
2021/06/13 02:36:11;;;;;;;107.07;44.78;;;;;;;;;;4971802;28;20054;-66
2021/06/13 02:38:48;;;;;;;111.80;44.42;;;;;;;;;;4972012;28;20039;-67
2021/06/13 02:41:14;;;;;;;96.28;45.70;;;;;;;;;;4959573;28;20617;-66
2021/06/13 02:43:40;;;;;;;113.47;44.33;;;;;;;;;;5015309;28;20124;-67
2021/06/13 02:46:07;;;;;;;100.45;44.05;;;;;;;;;;5014083;28;20052;-65
2021/06/13 02:48:33;;;;;;;120.28;48.38;;;;;;;;;;5028953;28;20053;-67
2021/06/13 02:51:01;;;;;;;99.82;43.63;;;;;;;;;;5041522;28;20047;-66
2021/06/13 02:53:45;;;;;;;99.97;45.25;;;;;;;;;;5045430;28;20044;-67
2021/06/13 02:56:38;;;;;;;104.72;49.25;;;;;;;;;;5029884;28;20029;-67
2021/06/13 02:59:08;;;;;;;124.53;48.90;;;;;;;;;;5038525;28;20051;-62
2021/06/13 03:01:36;;;;;;;122.47;54.10;;;;;;;;;;5014114;28;20588;-66
2021/06/13 03:04:02;;;;;;;117.22;52.60;;;;;;;;;;5024350;28;20333;-67
2021/06/13 03:06:33;;;;;;;103.90;47.88;;;;;;;;;;5046044;28;20039;-64
2021/06/13 03:09:01;;;;;;;110.15;46.47;;;;;;;;;;5009187;28;20083;-67
2021/06/13 03:11:27;;;;;;;105.03;47.25;;;;;;;;;;5008234;28;20037;-67
2021/06/13 03:13:54;;;;;;;99.72;45.55;;;;;;;;;;5012110;28;20054;-67
2021/06/13 03:16:21;;;;;;;110.63;47.83;;;;;;;;;;5020059;28;20426;-67
2021/06/13 03:18:50;;;;;;;121.90;50.33;;;;;;;;;;5041736;28;20165;-66
2021/06/13 03:21:18;;;;;;;122.60;49.40;;;;;;;;;;5025906;28;20038;-66
2021/06/13 03:23:45;;;;;;;106.95;49.10;;;;;;;;;;5015033;28;20040;-67
2021/06/13 03:26:14;;;;;;;110.65;49.10;;;;;;;;;;5009585;28;20034;-67
2021/06/13 03:28:41;;;;;;;109.05;50.03;;;;;;;;;;5010827;28;20033;-69
2021/06/13 03:31:09;;;;;;;115.38;51.35;;;;;;;;;;5025171;28;20048;-66
2021/06/13 03:33:37;;;;;;;121.82;52.17;;;;;;;;;;5027389;28;20769;-66
2021/06/13 03:36:05;;;;;;;111.43;50.03;;;;;;;;;;5027115;28;20037;-70
2021/06/13 03:38:32;;;;;;;119.68;50.05;;;;;;;;;;5024343;28;20037;-65
2021/06/13 03:40:59;;;;;;;113.78;49.58;;;;;;;;;;5027068;28;20056;-69
2021/06/13 03:43:26;;;;;;;105.30;48.35;;;;;;;;;;5016848;28;20510;-68
2021/06/13 03:45:51;;;;;;;127.15;50.58;;;;;;;;;;5010501;28;20042;-71
2021/06/13 03:48:18;;;;;;;117.00;48.92;;;;;;;;;;5024540;28;20036;-70
2021/06/13 03:50:45;;;;;;;120.68;50.28;;;;;;;;;;5023788;28;20057;-71
2021/06/13 03:53:11;;;;;;;121.90;49.65;;;;;;;;;;5018357;28;20026;-69
2021/06/13 03:55:36;;;;;;;127.50;53.03;;;;;;;;;;5016100;28;20049;-69
2021/06/13 03:58:02;;;;;;;110.85;49.33;;;;;;;;;;5023993;28;20039;-68
2021/06/13 04:00:30;;;;;;;110.75;48.97;;;;;;;;;;5022101;28;20077;-68
2021/06/13 04:02:56;;;;;;;120.53;49.97;;;;;;;;;;5022838;28;20119;-67
2021/06/13 04:05:27;;;;;;;109.32;49.33;;;;;;;;;;5008081;28;20100;-68
2021/06/13 04:07:53;;;;;;;110.68;51.33;;;;;;;;;;5025433;28;20037;-66
2021/06/13 04:10:22;;;;;;;129.13;48.67;;;;;;;;;;5024939;28;20057;-66
2021/06/13 04:12:48;;;;;;;116.38;49.95;;;;;;;;;;5026904;28;20034;-66
2021/06/13 04:15:14;;;;;;;111.93;48.22;;;;;;;;;;5027505;28;20250;-69
2021/06/13 04:17:41;;;;;;;110.95;49.38;;;;;;;;;;5026641;28;20034;-70
2021/06/13 04:20:08;;;;;;;113.63;50.15;;;;;;;;;;5025324;28;20037;-69
2021/06/13 04:22:36;;;;;;;113.50;53.28;;;;;;;;;;5022491;28;20123;-71
2021/06/13 04:25:01;;;;;;;133.48;60.80;;;;;;;;;;5022355;28;20038;-70
2021/06/13 04:27:29;;;;;;;117.20;55.63;;;;;;;;;;5021133;28;20042;-71
2021/06/13 04:29:59;;;;;;;120.10;57.40;;;;;;;;;;5014537;28;20076;-67
2021/06/13 04:32:25;;;;;;;127.55;52.45;;;;;;;;;;5025931;28;20231;-71
2021/06/13 04:34:51;;;;;;;108.63;50.90;;;;;;;;;;5024844;28;20049;-73
2021/06/13 04:37:17;;;;;;;116.60;57.63;;;;;;;;;;5024068;28;20450;-70
2021/06/13 04:39:43;;;;;;;127.93;62.75;;;;;;;;;;5014758;28;20029;-71
2021/06/13 04:42:09;;;;;;;128.77;64.30;;;;;;;;;;5007471;28;20048;-68
2021/06/13 04:44:35;;;;;;;133.52;64.78;;;;;;;;;;5016139;28;20109;-69
2021/06/13 04:47:00;;;;;;;127.35;60.70;;;;;;;;;;5023260;28;20029;-67
2021/06/13 04:49:26;;;;;;;119.60;55.28;;;;;;;;;;5006051;28;20547;-68
2021/06/13 04:51:54;;;;;;;119.78;53.90;;;;;;;;;;5017591;28;20033;-67
2021/06/13 04:54:23;;;;;;;114.38;51.80;;;;;;;;;;5022089;28;20054;-71
2021/06/13 04:57:04;;;;;;;99.82;47.08;;;;;;;;;;5023424;28;20064;-71
2021/06/13 04:59:29;;;;;;;98.63;45.50;;;;;;;;;;5026431;28;20055;-71
2021/06/13 05:01:55;;;;;;;108.32;46.75;;;;;;;;;;5017366;28;20582;-68
2021/06/13 05:04:20;;;;;;;85.20;42.45;;;;;;;;;;5010906;28;20053;-71
2021/06/13 05:06:46;;;;;;;75.78;38.97;;;;;;;;;;5018484;28;20751;-72
2021/06/13 05:09:12;;;;;;;85.25;39.75;;;;;;;;;;5033144;28;20060;-72
2021/06/13 05:11:38;;;;;;;75.50;34.38;;;;;;;;;;5025375;28;20052;-69
2021/06/13 05:14:04;;;;;;;75.45;34.38;;;;;;;;;;5031457;28;20282;-72
2021/06/13 05:16:29;;;;;;;55.70;29.38;;;;;;;;;;5027355;28;20049;-67
2021/06/13 05:18:55;;;;;;;46.53;25.80;;;;;;;;;;5033807;28;20061;-67
2021/06/13 05:21:21;;;;;;;43.80;21.92;;;;;;;;;;5029586;28;20162;-69
2021/06/13 05:23:46;;;;;;;52.38;23.50;;;;;;;;;;5041770;28;20072;-71
2021/06/13 05:26:12;;;;;;;32.28;17.33;;;;;;;;;;5025196;28;20043;-70
2021/06/13 05:28:39;;;;;;;41.72;22.17;;;;;;;;;;5023233;28;20037;-69
2021/06/13 05:31:05;;;;;;;27.13;15.15;;;;;;;;;;5024803;28;20511;-71
2021/06/13 05:33:31;;;;;;;29.60;17.42;;;;;;;;;;5022901;28;20052;-73
2021/06/13 05:35:57;;;;;;;36.17;17.65;;;;;;;;;;5019105;28;20037;-73
2021/06/13 05:38:23;;;;;;;34.58;16.13;;;;;;;;;;5031659;28;20128;-68
2021/06/13 05:40:49;;;;;;;22.75;10.50;;;;;;;;;;5023421;28;20450;-69
2021/06/13 05:43:14;;;;;;;18.77;10.77;;;;;;;;;;5017584;28;20036;-68
2021/06/13 05:45:40;;;;;;;21.92;9.00;;;;;;;;;;5018956;28;20029;-67
2021/06/13 05:48:06;;;;;;;20.67;10.40;;;;;;;;;;5015224;28;20406;-67
2021/06/13 05:50:35;;;;;;;22.83;9.70;;;;;;;;;;5034117;28;20501;-69
2021/06/13 05:53:02;;;;;;;23.48;10.25;;;;;;;;;;5026257;28;20068;-69
2021/06/13 05:55:28;;;;;;;20.10;10.02;;;;;;;;;;5043715;28;20140;-67
2021/06/13 05:57:55;;;;;;;26.83;12.90;;;;;;;;;;5026912;28;20119;-69
2021/06/13 06:00:24;;;;;;;30.00;12.98;;;;;;;;;;5026095;28;20134;-70
2021/06/13 06:02:50;;;;;;;23.77;10.55;;;;;;;;;;5027875;28;20043;-71
2021/06/13 06:05:17;;;;;;;25.38;11.68;;;;;;;;;;5037167;28;20041;-70
2021/06/13 06:07:42;;;;;;;22.58;8.77;;;;;;;;;;5034762;28;20037;-70
2021/06/13 06:10:09;;;;;;;18.58;8.43;;;;;;;;;;5016374;28;20049;-70
2021/06/13 06:12:35;;;;;;;20.65;9.63;;;;;;;;;;5022934;28;20085;-67
2021/06/13 06:15:01;;;;;;;20.83;10.55;;;;;;;;;;5008214;28;20733;-71
2021/06/13 06:17:27;;;;;;;27.60;13.57;;;;;;;;;;5027248;28;20489;-71
2021/06/13 06:19:53;;;;;;;31.65;13.35;;;;;;;;;;5026877;28;20175;-71
2021/06/13 06:22:18;;;;;;;23.83;13.30;;;;;;;;;;5033940;28;20469;-74
2021/06/13 06:24:45;;;;;;;27.40;14.55;;;;;;;;;;5043838;28;20037;-70
2021/06/13 06:27:10;;;;;;;32.72;13.23;;;;;;;;;;5027472;28;20110;-70
2021/06/13 06:29:36;;;;;;;28.88;12.15;;;;;;;;;;5026593;28;20032;-68
2021/06/13 06:32:02;;;;;;;34.30;13.73;;;;;;;;;;5031946;28;20041;-72
2021/06/13 06:34:28;;;;;;;30.23;14.23;;;;;;;;;;5019317;28;20052;-71
2021/06/13 06:36:54;;;;;;;28.10;15.20;;;;;;;;;;5040042;28;20531;-71
2021/06/13 06:39:20;;;;;;;31.17;15.43;;;;;;;;;;5042594;28;20036;-69
2021/06/13 06:41:45;;;;;;;35.75;14.85;;;;;;;;;;5024527;28;20037;-69
2021/06/13 06:44:11;;;;;;;31.30;17.80;;;;;;;;;;5036901;28;20048;-73
2021/06/13 06:46:37;;;;;;;33.20;18.63;;;;;;;;;;5027278;28;20033;-71
2021/06/13 06:49:04;;;;;;;37.78;17.90;;;;;;;;;;5026516;28;20033;-76
2021/06/13 06:51:30;;;;;;;29.48;16.30;;;;;;;;;;5008415;28;20056;-74
2021/06/13 06:53:57;;;;;;;35.15;14.77;;;;;;;;;;5020827;28;20446;-72
2021/06/13 06:56:23;;;;;;;27.77;15.15;;;;;;;;;;5025705;28;20408;-70
2021/06/13 06:58:49;;;;;;;29.58;14.45;;;;;;;;;;5007939;28;20030;-74
2021/06/13 07:01:16;;;;;;;26.33;12.77;;;;;;;;;;5025175;28;20037;-73
2021/06/13 07:03:42;;;;;;;21.10;11.80;;;;;;;;;;5042392;28;20036;-74
2021/06/13 07:06:07;;;;;;;28.02;11.10;;;;;;;;;;5016811;28;20478;-71
2021/06/13 07:08:33;;;;;;;13.38;9.60;;;;;;;;;;5037155;28;20030;-74
2021/06/13 07:11:05;;;;;;;16.90;7.90;;;;;;;;;;5009465;28;20052;-74
2021/06/13 07:13:31;;;;;;;14.35;8.73;;;;;;;;;;5016775;28;20040;-70
2021/06/13 07:15:57;;;;;;;38.45;8.80;;;;;;;;;;5026347;28;20501;-78
2021/06/13 07:18:22;;;;;;;15.88;7.72;;;;;;;;;;5027089;28;20029;-78
2021/06/13 07:20:48;;;;;;;20.20;7.80;;;;;;;;;;5014943;28;20044;-77
2021/06/13 07:23:14;;;;;;;17.30;7.68;;;;;;;;;;5019809;28;20037;-74
2021/06/13 07:25:39;;;;;;;15.85;7.15;;;;;;;;;;5030020;28;20041;-76
2021/06/13 07:28:05;;;;;;;16.17;8.13;;;;;;;;;;5030781;28;20043;-75
2021/06/13 07:30:32;;;;;;;16.27;9.05;;;;;;;;;;5033222;28;20029;-77
2021/06/13 07:32:58;;;;;;;16.95;9.35;;;;;;;;;;5043575;28;20048;-76
2021/06/13 07:35:23;;;;;;;17.33;9.70;;;;;;;;;;5026370;28;20041;-76
2021/06/13 07:37:49;;;;;;;16.00;8.65;;;;;;;;;;5020667;28;20464;-77
2021/06/13 07:40:16;;;;;;;15.95;8.80;;;;;;;;;;5014204;28;20091;-74
2021/06/13 07:42:42;;;;;;;19.42;8.95;;;;;;;;;;5028051;28;20509;-76
2021/06/13 07:45:09;;;;;;;13.50;7.95;;;;;;;;;;5047952;28;20524;-73
2021/06/13 07:47:35;;;;;;;13.88;7.25;;;;;;;;;;5026113;28;20124;-78
2021/06/13 07:50:01;;;;;;;16.88;7.32;;;;;;;;;;5023060;28;20128;-75
2021/06/13 07:52:27;;;;;;;21.92;7.35;;;;;;;;;;5044142;28;20029;-74
2021/06/13 07:54:53;;;;;;;13.35;7.05;;;;;;;;;;5026989;28;20032;-78
2021/06/13 07:57:18;;;;;;;14.63;7.00;;;;;;;;;;5021435;28;20087;-72
2021/06/13 07:59:46;;;;;;;11.77;6.70;;;;;;;;;;5046760;28;20036;-80
2021/06/13 08:02:12;;;;;;;11.90;6.97;;;;;;;;;;5013504;28;20033;-77
2021/06/13 08:04:42;;;;;;;21.15;7.20;;;;;;;;;;5020037;28;20513;-77
2021/06/13 08:07:08;;;;;;;20.80;7.47;;;;;;;;;;5027872;28;20033;-72
2021/06/13 08:09:34;;;;;;;9.57;7.47;;;;;;;;;;5011911;28;20143;-77
2021/06/13 08:11:59;;;;;;;15.10;6.75;;;;;;;;;;5035510;28;20255;-77
2021/06/13 08:14:25;;;;;;;18.10;6.93;;;;;;;;;;5030927;28;20102;-74
2021/06/13 08:16:51;;;;;;;11.65;6.20;;;;;;;;;;5026953;28;20144;-79
2021/06/13 08:19:16;;;;;;;14.75;7.50;;;;;;;;;;5028949;28;20033;-79
2021/06/13 08:21:42;;;;;;;9.95;5.22;;;;;;;;;;5030670;28;20596;-75
2021/06/13 08:24:09;;;;;;;15.13;5.90;;;;;;;;;;5052311;28;20029;-74
2021/06/13 08:26:35;;;;;;;13.82;5.88;;;;;;;;;;5018828;28;20029;-76
2021/06/13 08:29:01;;;;;;;16.95;6.20;;;;;;;;;;5040129;28;20028;-74
2021/06/13 08:31:27;;;;;;;12.60;6.57;;;;;;;;;;5013930;28;20064;-75
2021/06/13 08:33:53;;;;;;;18.08;6.65;;;;;;;;;;5034928;28;20140;-75
2021/06/13 08:36:19;;;;;;;12.80;6.07;;;;;;;;;;5036391;28;20033;-76
2021/06/13 08:38:45;;;;;;;14.07;6.70;;;;;;;;;;5028281;28;20378;-76
2021/06/13 08:41:11;;;;;;;12.27;6.20;;;;;;;;;;5045076;28;20045;-73
2021/06/13 08:43:37;;;;;;;18.48;5.90;;;;;;;;;;5027864;28;20547;-73
2021/06/13 08:46:03;;;;;;;14.52;6.05;;;;;;;;;;5037660;28;20041;-75
2021/06/13 08:48:30;;;;;;;16.00;6.55;;;;;;;;;;5020664;28;20045;-73
2021/06/13 08:50:57;;;;;;;13.18;5.95;;;;;;;;;;5017578;28;20043;-73
2021/06/13 08:53:23;;;;;;;11.63;6.78;;;;;;;;;;5030294;28;20172;-70
2021/06/13 08:55:48;;;;;;;14.57;6.72;;;;;;;;;;5035069;28;20040;-70
2021/06/13 08:58:16;;;;;;;12.32;6.75;;;;;;;;;;5022875;28;20036;-70
2021/06/13 09:00:42;;;;;;;14.10;6.75;;;;;;;;;;5037464;28;20029;-71
2021/06/13 09:03:09;;;;;;;24.63;7.45;;;;;;;;;;5033158;28;20082;-69
2021/06/13 09:05:35;;;;;;;15.60;6.20;;;;;;;;;;5038596;28;20041;-70
2021/06/13 09:08:08;;;;;;;13.65;6.88;;;;;;;;;;5040472;28;20094;-69
2021/06/13 09:10:35;;;;;;;9.90;6.07;;;;;;;;;;5019049;28;20439;-68
2021/06/13 09:13:07;;;;;;;12.43;6.75;;;;;;;;;;5032200;28;20047;-67
2021/06/13 09:15:37;;;;;;;11.77;6.47;;;;;;;;;;5033259;28;20039;-71
2021/06/13 09:18:03;;;;;;;11.30;6.35;;;;;;;;;;5010729;28;20043;-70
2021/06/13 09:20:30;;;;;;;14.55;7.35;;;;;;;;;;5035824;28;20128;-71
2021/06/13 09:23:05;;;;;;;10.45;6.25;;;;;;;;;;5021112;28;20029;-74
2021/06/13 09:25:30;;;;;;;13.95;6.50;;;;;;;;;;5005382;28;20123;-75
2021/06/13 09:28:11;;;;;;;17.92;7.20;;;;;;;;;;5035995;28;20116;-77
2021/06/13 09:30:38;;;;;;;9.40;6.78;;;;;;;;;;5031761;28;20033;-77
2021/06/13 09:33:09;;;;;;;12.65;6.72;;;;;;;;;;5037788;28;20033;-75
2021/06/13 09:35:35;;;;;;;10.73;5.30;;;;;;;;;;5037046;28;20041;-74
2021/06/13 09:38:16;;;;;;;11.43;5.63;;;;;;;;;;5036427;28;20082;-72
2021/06/13 09:40:44;;;;;;;11.73;6.15;;;;;;;;;;5025984;28;20043;-69
2021/06/13 09:43:11;;;;;;;10.27;5.55;;;;;;;;;;5033112;28;20038;-70
2021/06/13 09:45:37;;;;;;;15.52;6.05;;;;;;;;;;5015950;28;20021;-70
2021/06/13 09:48:03;;;;;;;10.15;6.40;;;;;;;;;;5033271;28;20060;-69
2021/06/13 09:50:35;;;;;;;10.80;5.90;;;;;;;;;;5004468;28;20037;-69
2021/06/13 09:53:24;;;;;;;15.90;6.13;;;;;;;;;;5035356;28;20037;-70
2021/06/13 09:56:02;;;;;;;11.45;6.30;;;;;;;;;;5017255;28;20187;-71
2021/06/13 09:58:29;;;;;;;20.20;6.78;;;;;;;;;;5037971;28;20037;-74
2021/06/13 10:01:04;;;;;;;17.42;6.35;;;;;;;;;;5034614;28;20056;-74
2021/06/13 10:03:34;;;;;;;12.02;6.22;;;;;;;;;;5023750;28;20048;-71
2021/06/13 10:06:00;;;;;;;14.23;5.63;;;;;;;;;;5024645;28;20684;-75
2021/06/13 10:08:27;;;;;;;8.73;5.60;;;;;;;;;;5036776;28;20520;-77
2021/06/13 10:10:53;;;;;;;8.55;5.80;;;;;;;;;;5023025;28;20033;-73
2021/06/13 10:13:19;;;;;;;10.82;5.90;;;;;;;;;;5032381;28;20076;-73
2021/06/13 10:15:50;;;;;;;17.73;6.30;;;;;;;;;;5016690;28;20088;-74
2021/06/13 10:18:16;;;;;;;16.30;6.97;;;;;;;;;;5016119;28;20041;-74
2021/06/13 10:20:44;;;;;;;17.25;6.68;;;;;;;;;;5007232;28;20048;-75
2021/06/13 10:23:13;;;;;;;9.15;6.32;;;;;;;;;;5022925;28;20042;-74
2021/06/13 10:25:39;;;;;;;22.52;6.95;;;;;;;;;;5032123;28;20094;-70
2021/06/13 10:28:05;;;;;;;14.63;6.00;;;;;;;;;;5032795;28;20037;-73
2021/06/13 10:30:30;;;;;;;10.68;5.80;;;;;;;;;;5029081;28;20041;-75
2021/06/13 10:32:56;;;;;;;11.45;5.97;;;;;;;;;;5030189;28;20029;-76
2021/06/13 10:35:22;;;;;;;10.10;5.47;;;;;;;;;;5034406;28;20406;-74
2021/06/13 10:37:48;;;;;;;11.52;6.30;;;;;;;;;;5032274;28;20275;-76
2021/06/13 10:40:15;;;;;;;16.77;6.60;;;;;;;;;;5033705;28;20040;-75
2021/06/13 10:42:41;;;;;;;14.27;5.72;;;;;;;;;;5024437;28;20206;-74
2021/06/13 10:45:07;;;;;;;9.20;6.30;;;;;;;;;;5015266;28;20163;-76
2021/06/13 10:47:36;;;;;;;13.15;6.50;;;;;;;;;;5012146;28;20033;-73
2021/06/13 10:50:04;;;;;;;16.20;6.05;;;;;;;;;;5028731;28;20792;-76
2021/06/13 10:52:33;;;;;;;17.95;5.93;;;;;;;;;;5026531;28;20084;-70
2021/06/13 10:55:00;;;;;;;11.85;5.72;;;;;;;;;;5024345;28;20045;-71
2021/06/13 10:57:32;;;;;;;17.38;7.30;;;;;;;;;;5015117;28;20036;-71
2021/06/13 11:00:03;;;;;;;17.73;5.78;;;;;;;;;;5025383;28;20887;-70
2021/06/13 11:02:33;;;;;;;21.35;6.63;;;;;;;;;;5036594;28;20032;-71
2021/06/13 11:05:04;;;;;;;12.50;5.70;;;;;;;;;;5020656;28;20037;-71
2021/06/13 11:07:30;;;;;;;10.90;5.78;;;;;;;;;;5021919;28;20052;-76
2021/06/13 11:10:05;;;;;;;11.65;5.43;;;;;;;;;;5010781;28;20048;-74
2021/06/13 11:12:51;;;;;;;15.27;5.75;;;;;;;;;;5036979;28;20047;-73
2021/06/13 11:15:38;;;;;;;12.73;5.53;;;;;;;;;;5002737;28;20048;-71
2021/06/13 11:18:08;;;;;;;21.27;5.63;;;;;;;;;;5018853;28;20394;-72
2021/06/13 11:23:03;;;;;;;14.02;6.97;;;;;;;;;;5042396;28;20047;-78
2021/06/13 11:25:30;;;;;;;14.80;5.88;;;;;;;;;;5045604;28;20043;-81
2021/06/13 11:28:12;;;;;;;11.75;6.03;;;;;;;;;;5021871;28;20044;-68
2021/06/13 11:30:41;;;;;;;15.18;6.47;;;;;;;;;;5022487;28;20033;-74
2021/06/13 11:33:07;;;;;;;14.35;6.47;;;;;;;;;;5000689;28;20107;-71
2021/06/13 11:35:34;;;;;;;15.13;6.28;;;;;;;;;;5032838;28;20037;-81
2021/06/13 11:38:10;;;;;;;12.48;6.05;;;;;;;;;;5032657;28;20046;-79
2021/06/13 11:40:37;;;;;;;18.42;6.60;;;;;;;;;;5016233;28;20110;-74
2021/06/13 11:43:16;;;;;;;11.38;6.40;;;;;;;;;;5046323;28;20029;-75
2021/06/13 11:45:55;;;;;;;12.65;6.47;;;;;;;;;;5030801;28;20043;-72
2021/06/13 11:48:21;;;;;;;16.88;7.28;;;;;;;;;;5015874;28;20048;-72
2021/06/13 11:51:04;;;;;;;30.67;6.95;;;;;;;;;;5022145;28;20036;-74
2021/06/13 11:53:49;;;;;;;37.33;8.57;;;;;;;;;;5020840;28;20115;-75
2021/06/13 11:59:08;;;;;;;9.80;5.60;;;;;;;;;;5023852;28;20778;-72
2021/06/13 12:01:36;;;;;;;21.33;7.07;;;;;;;;;;5034801;28;20126;-73
2021/06/13 12:04:02;;;;;;;21.48;6.65;;;;;;;;;;5025826;28;20037;-74
2021/06/13 12:06:28;;;;;;;18.27;6.55;;;;;;;;;;5032644;28;20124;-70
2021/06/13 12:08:54;;;;;;;21.33;6.32;;;;;;;;;;5019084;28;20143;-73
2021/06/13 12:11:46;;;;;;;12.60;5.07;;;;;;;;;;5023580;28;20064;-70
2021/06/13 12:14:35;;;;;;;11.65;4.18;;;;;;;;;;5015269;28;20179;-71
2021/06/13 12:17:03;;;;;;;15.65;4.70;;;;;;;;;;5004826;28;20049;-69
2021/06/13 12:19:33;;;;;;;15.80;4.28;;;;;;;;;;5004029;28;20044;-68
2021/06/13 12:22:25;;;;;;;15.18;3.97;;;;;;;;;;5026523;28;20041;-72
2021/06/13 12:27:33;;;;;;;11.10;4.30;;;;;;;;;;5026848;28;20138;-72
2021/06/13 12:30:20;;;;;;;9.63;4.60;;;;;;;;;;5005356;28;20068;-74
2021/06/13 12:32:56;;;;;;;17.40;4.78;;;;;;;;;;5028435;28;20045;-75
2021/06/13 12:35:24;;;;;;;19.75;4.90;;;;;;;;;;5036877;28;20510;-76
2021/06/13 12:38:02;;;;;;;18.27;4.55;;;;;;;;;;5036789;28;20086;-73
2021/06/13 12:40:28;;;;;;;16.10;5.85;;;;;;;;;;5036876;28;20390;-74
2021/06/13 12:42:54;;;;;;;30.00;8.07;;;;;;;;;;5033656;28;20590;-75
2021/06/13 12:45:20;;;;;;;28.42;11.40;;;;;;;;;;5033154;28;20040;-78
2021/06/13 12:47:47;;;;;;;19.55;10.57;;;;;;;;;;5016056;28;20036;-78
2021/06/13 12:50:20;;;;;;;21.85;9.90;;;;;;;;;;4992048;28;20064;-77
2021/06/13 12:52:50;;;;;;;20.08;9.40;;;;;;;;;;5010597;28;20048;-71
2021/06/13 12:55:16;;;;;;;18.20;8.77;;;;;;;;;;5037820;28;20036;-71
2021/06/13 12:57:44;;;;;;;16.08;6.97;;;;;;;;;;5019561;28;20037;-73
2021/06/13 13:00:10;;;;;;;21.70;6.53;;;;;;;;;;5035385;28;20077;-73
2021/06/13 13:02:36;;;;;;;9.55;5.60;;;;;;;;;;5036496;28;20041;-70
2021/06/13 13:05:01;;;;;;;22.65;6.57;;;;;;;;;;5035814;28;20354;-70
2021/06/13 13:07:27;;;;;;;18.40;6.60;;;;;;;;;;5024449;28;20071;-73
2021/06/13 13:10:07;;;;;;;15.07;7.40;;;;;;;;;;5033441;28;20100;-73
2021/06/13 13:12:33;;;;;;;20.90;6.82;;;;;;;;;;5039452;28;20041;-72
2021/06/13 13:15:08;;;;;;;21.08;7.03;;;;;;;;;;5038623;28;20065;-67
2021/06/13 13:17:35;;;;;;;19.17;6.95;;;;;;;;;;5025107;28;20049;-71
2021/06/13 13:20:13;;;;;;;15.57;6.60;;;;;;;;;;5022462;28;20485;-76
2021/06/13 13:22:43;;;;;;;16.92;6.40;;;;;;;;;;5028027;28;20029;-75
2021/06/13 13:25:13;;;;;;;16.15;6.70;;;;;;;;;;5011136;28;20124;-75
2021/06/13 13:27:39;;;;;;;23.48;6.35;;;;;;;;;;5011610;28;20041;-76
2021/06/13 13:30:23;;;;;;;14.82;5.97;;;;;;;;;;5017568;28;20052;-77
2021/06/13 13:32:53;;;;;;;12.05;6.00;;;;;;;;;;5023694;28;20131;-71
2021/06/13 13:35:29;;;;;;;21.15;6.25;;;;;;;;;;5023255;28;20052;-76
2021/06/13 13:37:55;;;;;;;16.55;6.38;;;;;;;;;;5021626;28;20570;-74
2021/06/13 13:40:21;;;;;;;16.50;6.68;;;;;;;;;;5006241;28;20033;-78
2021/06/13 13:42:56;;;;;;;13.98;6.68;;;;;;;;;;5009127;28;20087;-73
2021/06/13 13:45:22;;;;;;;16.70;6.05;;;;;;;;;;5036650;28;20045;-71
2021/06/13 13:47:47;;;;;;;12.13;6.03;;;;;;;;;;5037655;28;20053;-71
2021/06/13 13:50:13;;;;;;;17.27;9.80;;;;;;;;;;5023483;28;20492;-71
2021/06/13 13:52:39;;;;;;;13.07;6.28;;;;;;;;;;5026153;28;20874;-70
2021/06/13 13:55:05;;;;;;;20.42;6.82;;;;;;;;;;5016509;28;20088;-70
2021/06/13 13:57:42;;;;;;;23.27;7.72;;;;;;;;;;5021132;28;20370;-69
2021/06/13 14:00:08;;;;;;;20.83;7.03;;;;;;;;;;5025908;28;20036;-71
2021/06/13 14:02:36;;;;;;;14.57;7.18;;;;;;;;;;5015070;28;20025;-73
2021/06/13 14:05:01;;;;;;;18.35;6.85;;;;;;;;;;5034237;28;20106;-75
2021/06/13 14:07:32;;;;;;;11.02;6.78;;;;;;;;;;5016357;28;20044;-69
2021/06/13 14:09:57;;;;;;;19.33;7.88;;;;;;;;;;5023854;28;20453;-70
2021/06/13 14:12:24;;;;;;;11.45;5.90;;;;;;;;;;5029913;28;20033;-72
2021/06/13 14:14:50;;;;;;;14.05;5.63;;;;;;;;;;5037893;28;20048;-72
2021/06/13 14:17:15;;;;;;;14.95;6.47;;;;;;;;;;5037739;28;20048;-72
2021/06/13 14:19:41;;;;;;;10.02;5.80;;;;;;;;;;5027190;28;20065;-70
2021/06/13 14:22:07;;;;;;;10.57;5.68;;;;;;;;;;5017843;28;20531;-72
2021/06/13 14:24:32;;;;;;;20.42;6.80;;;;;;;;;;5033439;28;20025;-71
2021/06/13 14:26:58;;;;;;;11.23;5.93;;;;;;;;;;4994630;28;20033;-71
2021/06/13 14:29:25;;;;;;;15.13;6.47;;;;;;;;;;5000836;28;20034;-70
2021/06/13 14:31:52;;;;;;;17.95;6.57;;;;;;;;;;5014982;28;20044;-68
2021/06/13 14:34:18;;;;;;;20.40;6.53;;;;;;;;;;4993744;28;20049;-69
2021/06/13 14:36:45;;;;;;;11.52;6.63;;;;;;;;;;5042576;28;20041;-70